Huvudsida
METAR-TAF:

METAR-TAF

Flygplatser :

Seinäjoki flygplats

Seinäjoki-Ilmola, Finland

latitud: 62-41-37N, longitud: 022-49-55E, höjd: 91 m

Aktuellt väderrapport

Denna rapport gjordes för 26 minuter sedan, klockan 15:50 UTC
Vind 3 kt från syd
Temperatur 4°C
Fuktighet 100%
Tryck 1020 hPa
Sikt: 4900 m
Mulet på en höjd av 200 ft
fuktdis

METAR: EFSI 141550Z AUTO 19003KT 4900 BR OVC002 04/04 Q1020

Tid: 18:16 (16:16 UTC)


TAF: saknas

Aktuella väderrapporter och prognoser från 4000 flygplatser (METAR- och TAF-rapporter).

De tillgängliga stationerna syns som gula och röda prickar på kartan.

För musen över prickarna för att se namnen på stationerna.

Klicka sedan för att få väderrapporter och prognoser.

För att ändra kartan: Klicka på de gröna knapparna med ett svart kors på för att zooma in; den gröna knappen med ett streck på för att zooma ut; eller på de gröna pilarna för angränsande kartor.


METAR-TAF: